Site contains unofficial IBTrACS data. Visit the IBTrACS Website to access archived data.

1893 Hurricane NOT_NAMED (1893248N28307)


IBTrACS version v04r00. Visit IBTrACS website for data access.
Please direct all questions to the IBTrACS Q and A forum

Storm track - Intensity - Wind Radii - Intensity Data - Source Data - All data

Summary Information

Storm ID 1893248N28307
Start Sep 5 00Z
Max Intensity 70 kt (Sep 7 06Z)
End Sep 13 18Z
ATCF IDs
Track status Best track data.

Storm track plot

Map of storm track

Intensity plots

Map of storm track

Radial wind information

No radial wind information for this storm


Position and Intensity Table

BASIN ISO_TIME_________ NATURE LAT LON MLC WIND
degrees north degrees east kts
NA 1893-09-05 00:00:00 TS 27.80 -53.20 25
NA 03:00:00 TS 28.05 -53.30 27
NA 06:00:00 TS 28.30 -53.40 30
NA 09:00:00 TS 28.56 -53.50 32
NA 12:00:00 TS 28.80 -53.60 35
NA 15:00:00 TS 29.02 -53.71 37
NA 18:00:00 TS 29.20 -53.80 40
NA 21:00:00 TS 29.35 -53.85 42
NA 1893-09-06 00:00:00 TS 29.50 -53.90 45
NA 03:00:00 TS 29.70 -54.00 47
NA 06:00:00 TS 29.90 -54.10 50
NA 09:00:00 TS 30.06 -54.15 52
NA 12:00:00 TS 30.20 -54.20 55
NA 15:00:00 TS 30.32 -54.30 57
NA 18:00:00 TS 30.40 -54.40 60
NA 21:00:00 TS 30.46 -54.46 60
NA 1893-09-07 00:00:00 TS 30.50 -54.50 60
NA 03:00:00 TS 30.55 -54.55 65
NA 06:00:00 TS 30.60 -54.60 70
NA 09:00:00 TS 30.65 -54.64 70
NA 12:00:00 TS 30.70 -54.70 70
NA 15:00:00 TS 30.75 -54.84 70
NA 18:00:00 TS 30.80 -55.00 70
NA 21:00:00 TS 30.86 -55.11 70
NA 1893-09-08 00:00:00 TS 30.90 -55.20 70
NA 03:00:00 TS 30.86 -55.30 70
NA 06:00:00 TS 30.80 -55.40 70
NA 09:00:00 TS 30.76 -55.49 70
NA 12:00:00 TS 30.70 -55.60 70
NA 15:00:00 TS 30.60 -55.75 70
NA 18:00:00 TS 30.50 -55.90 70
NA 21:00:00 TS 30.45 -56.00 70
NA 1893-09-09 00:00:00 TS 30.40 -56.10 70
NA 03:00:00 TS 30.30 -56.25 70
NA 06:00:00 TS 30.20 -56.40 70
NA 09:00:00 TS 30.15 -56.50 70
NA 12:00:00 TS 30.10 -56.60 70
NA 15:00:00 TS 30.00 -56.74 70
NA 18:00:00 TS 29.90 -56.90 70
NA 21:00:00 TS 29.83 -57.05 70
NA 1893-09-10 00:00:00 TS 29.80 -57.20 70
NA 03:00:00 TS 29.80 -57.36 70
NA 06:00:00 TS 29.80 -57.50 70
NA 09:00:00 TS 29.73 -57.62 70
NA 12:00:00 TS 29.70 -57.70 70
NA 15:00:00 TS 29.82 -57.71 67
NA 18:00:00 TS 30.00 -57.70 65
NA 21:00:00 TS 30.15 -57.75 62
NA 1893-09-11 00:00:00 TS 30.30 -57.80 60
NA 03:00:00 TS 30.45 -57.81 57
NA 06:00:00 TS 30.60 -57.80 55
NA 09:00:00 TS 30.71 -57.89 52
NA 12:00:00 TS 30.90 -57.80 50
NA 15:00:00 TS 31.26 -57.30 47
NA 18:00:00 TS 31.70 -56.60 45
NA 21:00:00 TS 32.10 -56.00 45
NA 1893-09-12 00:00:00 TS 32.50 -55.30 45
NA 03:00:00 TS 32.91 -54.39 45
NA 06:00:00 TS 33.30 -53.40 45
NA 09:00:00 TS 33.63 -52.57 45
NA 12:00:00 TS 34.00 -51.50 45
NA 15:00:00 TS 34.48 -49.84 45
NA 18:00:00 TS 35.00 -47.90 45
NA 21:00:00 TS 35.48 -46.05 45
NA 1893-09-13 00:00:00 TS 36.00 -44.20 45
NA 03:00:00 TS 36.59 -42.39 42
NA 06:00:00 TS 37.30 -40.60 40
NA 09:00:00 TS 38.09 -38.82 40
NA 12:00:00 TS 39.00 -37.00 40
NA 15:00:00 TS 39.99 -35.05 37
NA 18:00:00 ET 41.00 -33.00 35

Source Information

Agency Information
USA
TOKYO
CMA
HKO
NEWDELHI
REUNION
BOM
NADI
WELLINGTON
DS824
TD9636
TD9635
NEUMANN
MLC

All available IBTrACS Data

SEASON BASIN SUBBASIN ISO_TIME_________ NATURE LAT LON DIST2LAND LANDFALL IFLAG USA SSHS MLC LAT MLC LON MLC CLASS MLC WIND STORM SPEED STORM DIR
Year degrees north degrees east km km 1 degrees north degrees east kts kts degrees
1893 NA NA 1893-09-05 00:00:00 TS 27.80 -53.20 1644 1643 _____________O -1 27.80 -53.20 TD 25 5 341
1893 NA NA 03:00:00 TS 28.05 -53.30 1650 1650 _____________P -1 28.05 -53.30 TD 27 5 340
1893 NA NA 06:00:00 TS 28.30 -53.40 1663 1662 _____________O -1 28.30 -53.40 TD 30 5 341
1893 NA NA 09:00:00 TS 28.56 -53.50 1677 1677 _____________P -1 28.56 -53.50 TD 32 5 340
1893 NA NA 12:00:00 TS 28.80 -53.60 1684 1684 _____________O -1 28.80 -53.60 TS 35 5 338
1893 NA NA 15:00:00 TS 29.02 -53.71 1691 1691 _____________P -1 29.02 -53.71 TS 37 4 336
1893 NA NA 18:00:00 TS 29.20 -53.80 1699 1699 _____________O -1 29.20 -53.80 TS 40 4 339
1893 NA NA 21:00:00 TS 29.35 -53.85 1700 1700 _____________P -1 29.35 -53.85 TS 42 3 344
1893 NA NA 1893-09-06 00:00:00 TS 29.50 -53.90 1715 1715 _____________O -1 29.50 -53.90 TS 45 4 340
1893 NA NA 03:00:00 TS 29.70 -54.00 1724 1724 _____________P -1 29.70 -54.00 TS 47 4 337
1893 NA NA 06:00:00 TS 29.90 -54.10 1732 1732 _____________O -1 29.90 -54.10 TS 50 4 340
1893 NA NA 09:00:00 TS 30.06 -54.15 1742 1742 _____________P -1 30.06 -54.15 TS 52 3 344
1893 NA NA 12:00:00 TS 30.20 -54.20 1750 1750 _____________O -1 30.20 -54.20 TS 55 3 332
1893 NA NA 15:00:00 TS 30.32 -54.30 1751 1746 _____________P -1 30.32 -54.30 TS 57 3 319
1893 NA NA 18:00:00 TS 30.40 -54.40 1746 1732 _____________O -1 30.40 -54.40 TS 60 2 316
1893 NA NA 21:00:00 TS 30.46 -54.46 1732 1732 _____________P -1 30.46 -54.46 TS 60 1 320
1893 NA NA 1893-09-07 00:00:00 TS 30.50 -54.50 1732 1732 _____________O -1 30.50 -54.50 TS 60 1 321
1893 NA NA 03:00:00 TS 30.55 -54.55 1722 1717 _____________P -1 30.55 -54.55 TS 65 1 320
1893 NA NA 06:00:00 TS 30.60 -54.60 1717 1717 _____________O -1 30.60 -54.60 HU 70 1 327
1893 NA NA 09:00:00 TS 30.65 -54.64 1717 1703 _____________P -1 30.65 -54.64 HU 70 1 320
1893 NA NA 12:00:00 TS 30.70 -54.70 1703 1698 _____________O -1 30.70 -54.70 HU 70 2 300
1893 NA NA 15:00:00 TS 30.75 -54.84 1688 1679 _____________P -1 30.75 -54.84 HU 70 3 291
1893 NA NA 18:00:00 TS 30.80 -55.00 1679 1664 _____________O -1 30.80 -55.00 HU 70 3 297
1893 NA NA 21:00:00 TS 30.86 -55.11 1664 1660 _____________P -1 30.86 -55.11 HU 70 2 300
1893 NA NA 1893-09-08 00:00:00 TS 30.90 -55.20 1660 1655 _____________O -1 30.90 -55.20 HU 70 2 270
1893 NA NA 03:00:00 TS 30.86 -55.30 1655 1655 _____________P -1 30.86 -55.30 HU 70 2 240
1893 NA NA 06:00:00 TS 30.80 -55.40 1660 1655 _____________O -1 30.80 -55.40 HU 70 2 236
1893 NA NA 09:00:00 TS 30.76 -55.49 1655 1655 _____________P -1 30.76 -55.49 HU 70 2 240
1893 NA NA 12:00:00 TS 30.70 -55.60 1661 1656 _____________O -1 30.70 -55.60 HU 70 3 235
1893 NA NA 15:00:00 TS 30.60 -55.75 1662 1662 _____________P -1 30.60 -55.75 HU 70 3 233
1893 NA NA 18:00:00 TS 30.50 -55.90 1667 1662 _____________O -1 30.50 -55.90 HU 70 3 235
1893 NA NA 21:00:00 TS 30.45 -56.00 1654 1648 _____________P -1 30.45 -56.00 HU 70 2 240
1893 NA NA 1893-09-09 00:00:00 TS 30.40 -56.10 1648 1633 _____________O -1 30.40 -56.10 HU 70 3 235
1893 NA NA 03:00:00 TS 30.30 -56.25 1627 1612 _____________P -1 30.30 -56.25 HU 70 3 233
1893 NA NA 06:00:00 TS 30.20 -56.40 1612 1607 _____________O -1 30.20 -56.40 HU 70 3 235
1893 NA NA 09:00:00 TS 30.15 -56.50 1598 1592 _____________P -1 30.15 -56.50 HU 70 2 240
1893 NA NA 12:00:00 TS 30.10 -56.60 1592 1577 _____________O -1 30.10 -56.60 HU 70 3 234
1893 NA NA 15:00:00 TS 30.00 -56.74 1577 1557 _____________P -1 30.00 -56.74 HU 70 3 233
1893 NA NA 18:00:00 TS 29.90 -56.90 1557 1542 _____________O -1 29.90 -56.90 HU 70 3 238
1893 NA NA 21:00:00 TS 29.83 -57.05 1542 1531 _____________P -1 29.83 -57.05 HU 70 3 249
1893 NA NA 1893-09-10 00:00:00 TS 29.80 -57.20 1531 1525 _____________O -1 29.80 -57.20 HU 70 3 263
1893 NA NA 03:00:00 TS 29.80 -57.36 1520 1514 _____________P -1 29.80 -57.36 HU 70 3 270
1893 NA NA 06:00:00 TS 29.80 -57.50 1514 1500 _____________O -1 29.80 -57.50 HU 70 2 252
1893 NA NA 09:00:00 TS 29.73 -57.62 1500 1494 _____________P -1 29.73 -57.62 HU 70 2 240
1893 NA NA 12:00:00 TS 29.70 -57.70 1494 1494 _____________O -1 29.70 -57.70 HU 70 1 326
1893 NA NA 15:00:00 TS 29.82 -57.71 1503 1503 _____________P -1 29.82 -57.71 HU 67 3 0
1893 NA NA 18:00:00 TS 30.00 -57.70 1522 1522 _____________O -1 30.00 -57.70 HU 65 3 352
1893 NA NA 21:00:00 TS 30.15 -57.75 1541 1535 _____________P -1 30.15 -57.75 HU 62 3 344
1893 NA NA 1893-09-11 00:00:00 TS 30.30 -57.80 1545 1545 _____________O -1 30.30 -57.80 TS 60 3 351
1893 NA NA 03:00:00 TS 30.45 -57.81 1564 1554 _____________P -1 30.45 -57.81 TS 57 3 0
1893 NA NA 06:00:00 TS 30.60 -57.80 1573 1567 _____________O -1 30.60 -57.80 TS 55 3 345
1893 NA NA 09:00:00 TS 30.71 -57.89 1567 1550 _____________P -1 30.71 -57.89 TS 52 3 0
1893 NA NA 12:00:00 TS 30.90 -57.80 1550 1535 _____________O -1 30.90 -57.80 TS 50 7 43
1893 NA NA 15:00:00 TS 31.26 -57.30 1528 1513 _____________P -1 31.26 -57.30 TS 47 13 52
1893 NA NA 18:00:00 TS 31.70 -56.60 1518 1501 _____________O -1 31.70 -56.60 TS 45 14 53
1893 NA NA 21:00:00 TS 32.10 -56.00 1506 1496 _____________P -1 32.10 -56.00 TS 45 14 54
1893 NA NA 1893-09-12 00:00:00 TS 32.50 -55.30 1498 1481 _____________O -1 32.50 -55.30 TS 45 16 59
1893 NA NA 03:00:00 TS 32.91 -54.39 1484 1474 _____________P -1 32.91 -54.39 TS 45 18 63
1893 NA NA 06:00:00 TS 33.30 -53.40 1478 1447 _____________O -1 33.30 -53.40 TS 45 17 65
1893 NA NA 09:00:00 TS 33.63 -52.57 1447 1408 _____________P -1 33.63 -52.57 TS 45 17 66
1893 NA NA 12:00:00 TS 34.00 -51.50 1409 1374 _____________O -1 34.00 -51.50 TS 45 24 69
1893 NA NA 15:00:00 TS 34.48 -49.84 1376 1361 _____________P -1 34.48 -49.84 TS 45 31 71
1893 NA NA 18:00:00 TS 35.00 -47.90 1364 1359 _____________O -1 35.00 -47.90 TS 45 33 72
1893 NA NA 21:00:00 TS 35.48 -46.05 1372 1372 _____________P -1 35.48 -46.05 TS 45 32 72
1893 NA NA 1893-09-13 00:00:00 TS 36.00 -44.20 1395 1394 _____________O -1 36.00 -44.20 TS 45 32 69
1893 NA NA 03:00:00 TS 36.59 -42.39 1424 1424 _____________P -1 36.59 -42.39 TS 42 32 66
1893 NA NA 06:00:00 TS 37.30 -40.60 1462 1462 _____________O -1 37.30 -40.60 TS 40 32 62
1893 NA NA 09:00:00 TS 38.09 -38.82 1507 1507 _____________P -1 38.09 -38.82 TS 40 33 59
1893 NA NA 12:00:00 TS 39.00 -37.00 1556 1556 _____________O -1 39.00 -37.00 TS 40 35 57
1893 NA NA 15:00:00 TS 39.99 -35.05 1621 1621 _____________P -1 39.99 -35.05 TS 37 37 57
1893 NA NA 18:00:00 ET 41.00 -33.00 1708 _____________O -1 41.00 -33.00 EX 35 37 57